createdAt,value
2018-08-08T00:01:19.785Z,72.21
2018-08-08T00:03:50.287Z,72.11
2018-08-08T00:06:20.089Z,71.73
2018-08-08T00:08:49.466Z,72.08
2018-08-08T00:11:19.138Z,71.73
2018-08-08T00:13:49.202Z,72.37
2018-08-08T00:16:18.699Z,72.06
2018-08-08T00:18:48.507Z,71.75
2018-08-08T00:21:17.916Z,72.11
2018-08-08T00:23:47.341Z,72.12
2018-08-08T00:26:17.146Z,72.47
2018-08-08T00:28:46.715Z,72.08
2018-08-08T00:31:16.808Z,72.19
2018-08-08T00:33:46.535Z,72.25
2018-08-08T00:36:15.958Z,72.76
2018-08-08T00:38:45.830Z,73.67
2018-08-08T00:41:17.502Z,74.69
2018-08-08T00:43:48.220Z,75.25
2018-08-08T00:46:18.147Z,76.14
2018-08-08T00:48:48.260Z,77.53
2018-08-08T00:51:18.061Z,77.38
2018-08-08T00:53:47.557Z,78.80
2018-08-08T00:56:16.982Z,78.51
2018-08-08T00:58:46.472Z,78.72
2018-08-08T01:01:15.963Z,78.65
2018-08-08T01:03:45.332Z,78.22
2018-08-08T01:06:14.802Z,78.03
2018-08-08T01:08:44.950Z,78.02
2018-08-08T01:11:15.229Z,77.85
2018-08-08T01:13:44.736Z,77.94
2018-08-08T01:16:14.413Z,77.17
2018-08-08T01:18:43.820Z,77.38
2018-08-08T01:21:13.408Z,76.37
2018-08-08T01:23:43.146Z,76.15
2018-08-08T01:26:12.617Z,75.96
2018-08-08T01:28:42.713Z,75.76
2018-08-08T01:31:12.631Z,76.15
2018-08-08T01:33:42.037Z,76.07
2018-08-08T01:36:11.440Z,75.36
2018-08-08T01:38:40.889Z,75.39
2018-08-08T01:41:10.431Z,75.41
2018-08-08T01:43:40.170Z,75.15
2018-08-08T01:46:09.672Z,75.34
2018-08-08T01:48:39.343Z,74.96
2018-08-08T01:51:09.176Z,74.55
2018-08-08T01:53:38.619Z,74.47
2018-08-08T01:56:08.221Z,74.78
2018-08-08T01:58:38.832Z,75.56
2018-08-08T02:01:08.283Z,75.70
2018-08-08T02:03:37.726Z,76.04
2018-08-08T02:06:07.209Z,75.85
2018-08-08T02:08:37.612Z,75.84
2018-08-08T02:11:08.667Z,75.86
2018-08-08T02:13:38.083Z,75.56
2018-08-08T02:16:07.650Z,75.89
2018-08-08T02:18:37.610Z,75.94
2018-08-08T02:21:07.795Z,75.73
2018-08-08T02:23:38.290Z,75.31
2018-08-08T02:26:07.839Z,75.78
2018-08-08T02:28:38.780Z,76.03
2018-08-08T02:31:08.338Z,75.91
2018-08-08T02:33:38.437Z,75.92
2018-08-08T02:36:07.969Z,76.15
2018-08-08T02:38:37.473Z,76.24
2018-08-08T02:41:08.002Z,76.53
2018-08-08T02:43:37.826Z,76.23
2018-08-08T02:46:07.369Z,76.15
2018-08-08T02:48:37.031Z,76.58
2018-08-08T02:51:06.536Z,75.98
2018-08-08T02:53:35.949Z,75.85
2018-08-08T02:56:05.762Z,76.03
2018-08-08T02:58:35.835Z,75.22
2018-08-08T03:01:07.110Z,75.17
2018-08-08T03:03:38.811Z,74.45
2018-08-08T03:06:08.640Z,74.29
2018-08-08T03:08:38.310Z,74.17
2018-08-08T03:11:08.190Z,73.90
2018-08-08T03:13:37.705Z,74.09
2018-08-08T03:16:07.624Z,74.01
2018-08-08T03:18:37.053Z,73.75
2018-08-08T03:21:06.461Z,74.07
2018-08-08T03:23:37.268Z,74.21
2018-08-08T03:26:07.007Z,74.38
2018-08-08T03:28:37.455Z,73.71
2018-08-08T03:31:07.697Z,73.95
2018-08-08T03:33:38.988Z,73.58
2018-08-08T03:36:08.616Z,73.68
2018-08-08T03:38:38.973Z,73.02
2018-08-08T03:41:08.672Z,73.30
2018-08-08T03:43:38.773Z,72.91
2018-08-08T03:46:09.089Z,73.06
2018-08-08T03:48:39.613Z,73.06
2018-08-08T03:51:09.056Z,73.02
2018-08-08T03:53:39.398Z,72.49
2018-08-08T03:56:10.030Z,72.62
2018-08-08T03:58:42.074Z,73.84
2018-08-08T04:01:11.849Z,74.03
2018-08-08T04:03:42.339Z,73.70
2018-08-08T04:06:12.199Z,74.06
2018-08-08T04:08:42.126Z,74.75
2018-08-08T04:11:11.612Z,74.70
2018-08-08T04:13:42.821Z,74.68
2018-08-08T04:16:12.257Z,74.87
2018-08-08T04:18:42.821Z,74.87
2018-08-08T04:21:12.668Z,74.28
2018-08-08T04:23:42.300Z,74.76
2018-08-08T04:26:12.026Z,74.20
2018-08-08T04:28:41.564Z,74.51
2018-08-08T04:31:11.292Z,74.04
2018-08-08T04:33:40.960Z,74.47
2018-08-08T04:36:11.308Z,74.35
2018-08-08T04:38:40.822Z,74.76
2018-08-08T04:41:10.320Z,74.49
2018-08-08T04:43:43.597Z,74.52
2018-08-08T04:46:13.031Z,74.10
2018-08-08T04:48:42.635Z,74.35
2018-08-08T04:51:12.127Z,74.33
2018-08-08T04:53:41.829Z,73.44
2018-08-08T04:56:11.515Z,73.09
2018-08-08T04:58:41.519Z,73.25
2018-08-08T05:01:11.581Z,72.99
2018-08-08T05:03:41.039Z,72.92
2018-08-08T05:06:10.563Z,72.11
2018-08-08T05:08:40.043Z,71.68
2018-08-08T05:11:10.231Z,70.65
2018-08-08T05:13:40.088Z,70.14
2018-08-08T05:16:09.577Z,69.27
2018-08-08T05:18:40.661Z,69.25
2018-08-08T05:21:10.182Z,67.88
2018-08-08T05:23:39.684Z,67.91
2018-08-08T05:26:09.215Z,67.89
2018-08-08T05:28:38.823Z,67.32
2018-08-08T05:31:08.778Z,66.94
2018-08-08T05:33:38.525Z,66.78
2018-08-08T05:36:08.064Z,66.85
2018-08-08T05:38:37.584Z,66.15
2018-08-08T05:41:07.056Z,66.29
2018-08-08T05:43:36.832Z,65.92
2018-08-08T05:46:06.956Z,66.00
2018-08-08T05:48:36.792Z,65.43
2018-08-08T05:51:06.865Z,65.59
2018-08-08T05:53:36.445Z,65.83
2018-08-08T05:56:06.545Z,65.14
2018-08-08T05:58:36.517Z,65.28
2018-08-08T06:01:06.193Z,64.25
2018-08-08T06:03:36.972Z,64.00
2018-08-08T06:06:07.193Z,63.82
2018-08-08T06:08:36.789Z,63.82
2018-08-08T06:11:06.769Z,64.00
2018-08-08T06:13:36.313Z,63.62
2018-08-08T06:16:06.632Z,64.12
2018-08-08T06:18:36.647Z,63.80
2018-08-08T06:21:06.102Z,63.60
2018-08-08T06:23:36.470Z,63.29
2018-08-08T06:26:06.981Z,63.52
2018-08-08T06:28:40.677Z,63.52
2018-08-08T06:31:10.240Z,63.58
2018-08-08T06:36:08.561Z,63.22
2018-08-08T06:38:38.441Z,62.85
2018-08-08T06:41:08.139Z,63.69
2018-08-08T06:43:37.668Z,62.95
2018-08-08T06:46:07.473Z,62.64
2018-08-08T06:48:37.196Z,62.41
2018-08-08T06:51:07.607Z,61.71
2018-08-08T06:53:37.440Z,61.63
2018-08-08T06:56:07.358Z,60.70
2018-08-08T06:58:38.117Z,61.07
2018-08-08T07:01:08.612Z,61.07
2018-08-08T07:03:38.130Z,60.97
2018-08-08T07:06:08.545Z,60.62
2018-08-08T07:08:40.840Z,60.49
2018-08-08T07:11:11.980Z,59.49
2018-08-08T07:13:47.165Z,59.18
2018-08-08T07:16:17.106Z,59.09
2018-08-08T07:18:47.223Z,59.74
2018-08-08T07:21:18.413Z,59.22
2018-08-08T07:23:48.873Z,59.01
2018-08-08T07:26:20.165Z,59.29
2018-08-08T07:28:50.776Z,58.17
2018-08-08T07:31:20.342Z,58.48
2018-08-08T07:33:51.288Z,58.49
2018-08-08T07:36:21.432Z,57.73
2018-08-08T07:38:51.376Z,57.24
2018-08-08T07:41:21.067Z,56.57
2018-08-08T07:43:50.604Z,56.65
2018-08-08T07:46:21.864Z,57.20
2018-08-08T07:48:52.713Z,57.54
2018-08-08T07:51:23.397Z,56.59
2018-08-08T07:53:52.875Z,56.14
2018-08-08T07:56:22.596Z,55.99
2018-08-08T07:58:52.151Z,56.11
2018-08-08T08:01:22.009Z,55.25
2018-08-08T08:03:52.104Z,55.04
2018-08-08T08:06:21.679Z,54.68
2018-08-08T08:08:52.314Z,54.21
2018-08-08T08:11:22.743Z,54.97
2018-08-08T08:13:52.205Z,54.73
2018-08-08T08:16:22.856Z,52.72
2018-08-08T08:18:52.410Z,53.47
2018-08-08T08:21:22.002Z,53.83
2018-08-08T08:23:51.516Z,52.37
2018-08-08T08:26:21.815Z,52.77
2018-08-08T08:28:51.371Z,52.55
2018-08-08T08:31:21.819Z,52.83
2018-08-08T08:33:54.593Z,52.33
2018-08-08T08:36:24.144Z,51.47
2018-08-08T08:38:53.618Z,51.96
2018-08-08T08:41:23.085Z,52.27
2018-08-08T08:43:52.679Z,51.12
2018-08-08T08:46:22.300Z,51.33
2018-08-08T08:48:53.257Z,50.67
2018-08-08T08:51:23.285Z,50.60
2018-08-08T08:53:52.784Z,49.39
2018-08-08T08:56:22.433Z,49.98
2018-08-08T08:58:53.778Z,49.52
2018-08-08T09:01:23.613Z,50.11
2018-08-08T09:03:54.164Z,49.90
2018-08-08T09:06:25.356Z,48.68
2018-08-08T09:08:54.729Z,49.11
2018-08-08T09:11:26.073Z,48.47
2018-08-08T09:13:55.530Z,48.37
2018-08-08T09:16:25.292Z,47.52
2018-08-08T09:18:54.733Z,47.74
2018-08-08T09:21:24.869Z,46.46
2018-08-08T09:23:54.360Z,45.27
2018-08-08T09:26:23.855Z,45.40
2018-08-08T09:28:54.001Z,45.69
2018-08-08T09:31:24.256Z,45.22
2018-08-08T09:33:53.876Z,44.14
2018-08-08T09:36:23.686Z,45.08
2018-08-08T09:38:53.337Z,44.08
2018-08-08T09:41:22.742Z,43.26
2018-08-08T09:43:52.660Z,43.87
2018-08-08T09:46:22.608Z,43.38
2018-08-08T09:48:52.509Z,41.19
2018-08-08T09:51:22.132Z,42.19
2018-08-08T09:53:51.725Z,41.58
2018-08-08T09:56:21.594Z,40.60
2018-08-08T09:58:51.259Z,40.12
2018-08-08T10:03:31.630Z,39.27
2018-08-08T10:06:01.209Z,38.98
2018-08-08T10:08:31.093Z,37.90
2018-08-08T10:11:02.912Z,38.33
2018-08-08T10:13:33.809Z,37.10
2018-08-08T10:16:03.312Z,37.49
2018-08-08T10:18:32.733Z,38.08
2018-08-08T10:21:03.149Z,37.93
2018-08-08T10:23:32.590Z,36.35
2018-08-08T10:26:02.765Z,36.52
2018-08-08T10:28:32.196Z,35.56
2018-08-08T10:31:02.547Z,35.18
2018-08-08T10:33:31.996Z,33.52
2018-08-08T10:36:01.465Z,32.83
2018-08-08T10:38:30.915Z,33.14
2018-08-08T10:41:00.402Z,34.37
2018-08-08T10:43:30.028Z,34.43
2018-08-08T10:45:59.869Z,34.93
2018-08-08T10:48:29.307Z,34.49
2018-08-08T10:50:58.824Z,34.01
2018-08-08T10:53:28.257Z,33.83
2018-08-08T10:55:58.793Z,33.08
2018-08-08T10:58:28.540Z,32.56
2018-08-08T11:00:58.341Z,31.88
2018-08-08T11:03:28.248Z,33.08
2018-08-08T11:05:58.885Z,33.56
2018-08-08T11:08:28.380Z,33.66
2018-08-08T11:10:58.345Z,32.65
2018-08-08T11:13:28.761Z,33.24
2018-08-08T11:15:58.234Z,33.11
2018-08-08T11:18:29.062Z,33.28
2018-08-08T11:20:58.529Z,33.20
2018-08-08T11:23:28.041Z,33.04
2018-08-08T11:25:58.560Z,34.25
2018-08-08T11:28:31.064Z,33.64
2018-08-08T11:31:00.548Z,32.49
2018-08-08T11:33:30.691Z,32.17
2018-08-08T11:36:00.204Z,31.60
2018-08-08T11:38:30.227Z,30.73
2018-08-08T11:41:00.329Z,31.10
2018-08-08T11:43:29.846Z,31.00
2018-08-08T11:45:59.468Z,30.50
2018-08-08T11:48:28.829Z,29.92
2018-08-08T11:50:58.283Z,29.82
2018-08-08T11:53:27.780Z,30.17
2018-08-08T11:55:57.173Z,29.55
2018-08-08T11:58:26.604Z,29.93
2018-08-08T12:00:56.059Z,29.67
2018-08-08T12:03:27.807Z,29.00
2018-08-08T12:05:57.299Z,28.09
2018-08-08T12:08:27.414Z,28.24
2018-08-08T12:10:57.626Z,29.19
2018-08-08T12:13:27.120Z,30.08
2018-08-08T12:15:57.210Z,30.42
2018-08-08T12:18:26.681Z,30.17
2018-08-08T12:20:57.006Z,30.80
2018-08-08T12:23:26.481Z,29.85
2018-08-08T12:25:56.388Z,30.06
2018-08-08T12:28:26.928Z,29.36
2018-08-08T12:30:56.693Z,27.99
2018-08-08T12:33:26.112Z,27.07
2018-08-08T12:35:55.545Z,27.42
2018-08-08T12:38:24.978Z,27.62
2018-08-08T12:40:55.811Z,27.09
2018-08-08T12:43:25.273Z,27.75
2018-08-08T12:45:55.417Z,28.37
2018-08-08T12:48:24.832Z,27.76
2018-08-08T12:50:54.456Z,28.36
2018-08-08T12:53:23.860Z,29.50
2018-08-08T12:55:53.432Z,28.17
2018-08-08T12:58:22.919Z,28.58
2018-08-08T13:00:52.545Z,29.12
2018-08-08T13:03:22.193Z,28.71
2018-08-08T13:05:52.309Z,27.43
2018-08-08T13:08:22.305Z,27.96
2018-08-08T13:10:51.955Z,27.50
2018-08-08T13:13:21.336Z,26.96
2018-08-08T13:15:50.790Z,26.78
2018-08-08T13:18:20.176Z,27.42
2018-08-08T13:20:50.228Z,27.38
2018-08-08T13:23:20.353Z,29.78
2018-08-08T13:25:50.512Z,30.34
2018-08-08T13:28:19.988Z,30.55
2018-08-08T13:30:49.586Z,31.10
2018-08-08T13:33:19.217Z,31.68
2018-08-08T13:35:48.662Z,30.88
2018-08-08T13:38:18.249Z,31.29
2018-08-08T13:40:48.284Z,31.63
2018-08-08T13:43:18.528Z,31.76
2018-08-08T13:45:50.160Z,31.40
2018-08-08T13:48:19.711Z,32.18
2018-08-08T13:50:50.656Z,31.25
2018-08-08T13:53:20.273Z,31.28
2018-08-08T13:55:49.794Z,30.60
2018-08-08T13:58:19.226Z,31.18
2018-08-08T14:00:49.176Z,31.03
2018-08-08T14:03:20.766Z,31.55
2018-08-08T14:05:51.306Z,31.35
2018-08-08T14:08:20.683Z,31.45
2018-08-08T14:10:50.769Z,30.62
2018-08-08T14:13:20.334Z,30.55
2018-08-08T14:15:49.854Z,30.75
2018-08-08T14:18:19.839Z,31.41
2018-08-08T14:20:50.025Z,30.33
2018-08-08T14:23:23.445Z,30.60
2018-08-08T14:25:53.454Z,30.43
2018-08-08T14:28:31.727Z,30.80
2018-08-08T14:31:01.769Z,31.55
2018-08-08T14:33:32.211Z,31.05
2018-08-08T14:36:01.702Z,31.34
2018-08-08T14:38:31.228Z,31.42
2018-08-08T14:41:00.670Z,31.64
2018-08-08T14:43:30.195Z,31.30
2018-08-08T14:45:59.768Z,31.01
2018-08-08T14:48:30.210Z,30.90
2018-08-08T14:51:03.820Z,30.40
2018-08-08T14:53:34.022Z,31.00
2018-08-08T14:56:05.928Z,31.52
2018-08-08T14:58:52.434Z,31.25
2018-08-08T15:01:25.021Z,31.57
2018-08-08T15:03:55.963Z,32.20
2018-08-08T15:06:26.530Z,31.33
2018-08-08T15:08:57.127Z,31.54
2018-08-08T15:11:28.273Z,31.27
2018-08-08T15:13:58.753Z,31.23
2018-08-08T15:16:30.666Z,30.85
2018-08-08T15:19:00.253Z,31.89
2018-08-08T15:21:31.832Z,32.53
2018-08-08T15:24:01.371Z,32.60
2018-08-08T15:26:33.635Z,32.13
2018-08-08T15:29:07.819Z,32.65
2018-08-08T15:31:41.665Z,32.14
2018-08-08T15:34:15.551Z,32.53
2018-08-08T15:36:50.698Z,32.40
2018-08-08T15:39:24.281Z,31.92
2018-08-08T15:42:05.471Z,33.31
2018-08-08T15:44:35.050Z,33.64
2018-08-08T15:47:04.960Z,33.76
2018-08-08T15:49:34.541Z,34.39
2018-08-08T15:52:04.848Z,34.69
2018-08-08T15:54:34.321Z,34.81
2018-08-08T15:57:03.833Z,34.66
2018-08-08T15:59:34.041Z,35.58
2018-08-08T16:02:03.623Z,35.94
2018-08-08T16:04:33.305Z,36.13
2018-08-08T16:07:03.160Z,36.51
2018-08-08T16:09:34.508Z,37.36
2018-08-08T16:12:04.196Z,37.45
2018-08-08T16:14:33.800Z,37.36
2018-08-08T16:17:03.330Z,38.15
2018-08-08T16:19:32.836Z,37.41
2018-08-08T16:22:03.573Z,37.97
2018-08-08T16:24:34.307Z,38.45
2018-08-08T16:27:04.422Z,39.20
2018-08-08T16:29:35.132Z,39.03
2018-08-08T16:32:05.090Z,39.31
2018-08-08T16:34:35.881Z,39.41
2018-08-08T16:37:11.537Z,39.03
2018-08-08T16:39:40.982Z,38.37
2018-08-08T16:42:10.487Z,38.36
2018-08-08T16:44:40.562Z,38.27
2018-08-08T16:47:12.096Z,38.97
2018-08-08T16:49:42.420Z,38.55
2018-08-08T16:52:11.916Z,39.64
2018-08-08T16:54:43.266Z,39.48
2018-08-08T16:57:12.821Z,39.76
2018-08-08T16:59:42.505Z,40.25
2018-08-08T17:02:12.161Z,40.53
2018-08-08T17:04:41.685Z,40.78
2018-08-08T17:07:11.788Z,40.80
2018-08-08T17:09:42.674Z,40.91
2018-08-08T17:12:12.801Z,40.66
2018-08-08T17:14:42.339Z,40.67
2018-08-08T17:17:12.192Z,41.42
2018-08-08T17:19:41.922Z,40.80
2018-08-08T17:22:11.875Z,40.63
2018-08-08T17:24:41.370Z,40.83
2018-08-08T17:27:12.706Z,40.55
2018-08-08T17:29:42.875Z,40.00
2018-08-08T17:32:14.429Z,40.92
2018-08-08T17:34:44.591Z,40.04
2018-08-08T17:37:14.473Z,40.34
2018-08-08T17:39:43.965Z,39.86
2018-08-08T17:42:14.109Z,40.15
2018-08-08T17:44:46.122Z,39.39
2018-08-08T17:47:15.600Z,39.72
2018-08-08T17:49:46.820Z,39.52
2018-08-08T17:52:16.906Z,40.65
2018-08-08T17:54:47.120Z,41.08
2018-08-08T17:57:16.922Z,40.72
2018-08-08T17:59:46.343Z,41.99
2018-08-08T18:02:15.791Z,43.82
2018-08-08T18:04:45.884Z,43.94
2018-08-08T18:07:16.000Z,45.13
2018-08-08T18:09:45.984Z,45.74
2018-08-08T18:12:16.040Z,45.64
2018-08-08T18:14:51.309Z,46.60
2018-08-08T18:17:23.828Z,46.63
2018-08-08T18:19:54.358Z,47.37
2018-08-08T18:22:24.572Z,47.69
2018-08-08T18:24:53.999Z,47.33
2018-08-08T18:27:23.605Z,47.62
2018-08-08T18:29:53.180Z,48.42
2018-08-08T18:32:22.914Z,48.70
2018-08-08T18:34:52.335Z,49.80
2018-08-08T18:37:21.836Z,50.11
2018-08-08T18:39:51.349Z,52.55
2018-08-08T18:42:21.259Z,52.01
2018-08-08T18:44:50.808Z,52.96
2018-08-08T18:47:20.453Z,52.97
2018-08-08T18:49:50.075Z,52.99
2018-08-08T18:52:19.625Z,53.13
2018-08-08T18:54:50.015Z,53.81
2018-08-08T18:57:23.274Z,54.03
2018-08-08T18:59:53.214Z,54.01
2018-08-08T19:02:22.706Z,54.35
2018-08-08T19:04:52.348Z,54.10
2018-08-08T19:07:23.243Z,54.19
2018-08-08T19:09:52.815Z,54.28
2018-08-08T19:12:22.316Z,53.91
2018-08-08T19:14:51.892Z,54.82
2018-08-08T19:17:21.579Z,55.07
2018-08-08T19:19:51.110Z,55.51
2018-08-08T19:22:25.329Z,55.55
2018-08-08T19:24:54.802Z,55.95
2018-08-08T19:27:24.235Z,56.29
2018-08-08T19:29:53.986Z,56.76
2018-08-08T19:32:25.286Z,57.05
2018-08-08T19:34:54.659Z,57.43
2018-08-08T19:37:24.077Z,58.33
2018-08-08T19:39:56.500Z,58.13
2018-08-08T19:42:26.465Z,58.31
2018-08-08T19:44:55.900Z,58.84
2018-08-08T19:47:25.538Z,58.81
2018-08-08T19:49:54.973Z,58.21
2018-08-08T19:52:24.604Z,58.21
2018-08-08T19:54:55.115Z,58.30
2018-08-08T19:57:26.801Z,58.78
2018-08-08T19:59:57.152Z,58.31
2018-08-08T20:02:26.710Z,58.13
2018-08-08T20:04:56.685Z,58.60
2018-08-08T20:07:26.764Z,57.94
2018-08-08T20:09:57.501Z,57.79
2018-08-08T20:12:27.521Z,58.22
2018-08-08T20:14:56.949Z,58.39
2018-08-08T20:17:26.949Z,58.49
2018-08-08T20:19:56.574Z,58.71
2018-08-08T20:22:26.440Z,58.52
2018-08-08T20:24:56.010Z,58.40
2018-08-08T20:27:25.984Z,59.14
2018-08-08T20:29:55.432Z,58.72
2018-08-08T20:32:26.511Z,58.85
2018-08-08T20:34:56.130Z,58.86
2018-08-08T20:37:25.790Z,58.96
2018-08-08T20:39:57.902Z,59.12
2018-08-08T20:42:27.589Z,58.89
2018-08-08T20:44:57.053Z,59.30
2018-08-08T20:47:26.482Z,58.93
2018-08-08T20:49:56.358Z,59.54
2018-08-08T20:52:25.864Z,60.25
2018-08-08T20:54:55.708Z,60.71
2018-08-08T20:57:25.665Z,60.38
2018-08-08T20:59:55.647Z,60.70
2018-08-08T21:02:27.053Z,60.73
2018-08-08T21:04:56.565Z,60.88
2018-08-08T21:07:26.069Z,61.03
2018-08-08T21:09:55.660Z,61.17
2018-08-08T21:12:25.336Z,61.41
2018-08-08T21:14:55.930Z,60.74
2018-08-08T21:17:26.556Z,60.91
2018-08-08T21:19:56.086Z,60.49
2018-08-08T21:22:26.542Z,60.46
2018-08-08T21:24:55.953Z,60.54
2018-08-08T21:27:26.734Z,61.36
2018-08-08T21:29:56.235Z,61.27
2018-08-08T21:32:26.388Z,61.22
2018-08-08T21:34:56.534Z,61.24
2018-08-08T21:37:26.140Z,60.68
2018-08-08T21:39:56.468Z,61.22
2018-08-08T21:42:26.348Z,61.71
2018-08-08T21:44:56.090Z,61.55
2018-08-08T21:47:25.535Z,61.57
2018-08-08T21:49:55.434Z,61.85
2018-08-08T21:52:25.161Z,61.14
2018-08-08T21:55:07.283Z,62.32
2018-08-08T21:57:47.805Z,62.65
2018-08-08T22:00:29.178Z,62.92
2018-08-08T22:03:13.675Z,62.36
2018-08-08T22:05:54.165Z,62.15
2018-08-08T22:08:34.772Z,61.61
2018-08-08T22:11:18.267Z,61.96
2018-08-08T22:13:58.698Z,60.97
2018-08-08T22:16:39.895Z,60.12
2018-08-08T22:19:26.955Z,60.44
2018-08-08T22:22:00.065Z,60.67
2018-08-08T22:24:29.509Z,60.42
2018-08-08T22:26:59.118Z,60.56
2018-08-08T22:29:30.269Z,61.22
2018-08-08T22:32:01.934Z,60.98
2018-08-08T22:34:32.450Z,61.29
2018-08-08T22:37:02.092Z,61.28
2018-08-08T22:39:33.641Z,61.32
2018-08-08T22:42:03.156Z,61.63
2018-08-08T22:44:32.817Z,62.99
2018-08-08T22:47:02.271Z,62.90
2018-08-08T22:49:32.315Z,63.00
2018-08-08T22:52:05.964Z,63.62
2018-08-08T22:54:35.380Z,63.16
2018-08-08T22:57:04.865Z,63.76
2018-08-08T22:59:34.305Z,64.59
2018-08-08T23:02:05.206Z,63.94
2018-08-08T23:04:34.662Z,63.76
2018-08-08T23:07:04.173Z,63.38
2018-08-08T23:09:33.674Z,62.55
2018-08-08T23:12:03.870Z,62.60
2018-08-08T23:14:33.415Z,61.77
2018-08-08T23:17:03.802Z,62.02
2018-08-08T23:19:33.359Z,61.41
2018-08-08T23:22:02.984Z,61.22
2018-08-08T23:24:32.987Z,61.43
2018-08-08T23:27:02.622Z,61.44
2018-08-08T23:29:32.188Z,61.02
2018-08-08T23:32:01.665Z,61.21
2018-08-08T23:34:31.289Z,60.21
2018-08-08T23:37:00.895Z,59.06
2018-08-08T23:39:31.333Z,60.50
2018-08-08T23:42:01.706Z,61.63
2018-08-08T23:44:32.242Z,61.30
2018-08-08T23:47:01.681Z,61.47
2018-08-08T23:49:32.845Z,61.60
2018-08-08T23:52:02.365Z,62.66
2018-08-08T23:54:32.130Z,63.72
2018-08-08T23:57:01.562Z,64.22
2018-08-08T23:59:31.032Z,63.76
